sensor_id;sensor_type;location;lat;lon;timestamp;P1;durP1;ratioP1;P2;durP2;ratioP2
72284;SDS011;60220;53.552;10.092;2023-07-20T00:02:00;3.00;;;2.40;;
72284;SDS011;60220;53.552;10.092;2023-07-20T00:04:27;4.53;;;2.78;;
72284;SDS011;60220;53.552;10.092;2023-07-20T00:06:54;2.72;;;2.45;;
72284;SDS011;60220;53.552;10.092;2023-07-20T00:09:20;3.88;;;2.83;;
72284;SDS011;60220;53.552;10.092;2023-07-20T00:11:48;4.38;;;2.40;;
72284;SDS011;60220;53.552;10.092;2023-07-20T00:14:17;3.53;;;2.20;;
72284;SDS011;60220;53.552;10.092;2023-07-20T00:16:46;2.85;;;2.58;;
72284;SDS011;60220;53.552;10.092;2023-07-20T00:19:14;4.22;;;2.38;;
72284;SDS011;60220;53.552;10.092;2023-07-20T00:21:43;2.33;;;2.15;;
72284;SDS011;60220;53.552;10.092;2023-07-20T00:24:10;3.33;;;2.30;;
72284;SDS011;60220;53.552;10.092;2023-07-20T00:26:36;2.63;;;2.25;;
72284;SDS011;60220;53.552;10.092;2023-07-20T00:29:03;2.42;;;2.22;;
72284;SDS011;60220;53.552;10.092;2023-07-20T00:31:29;6.13;;;2.10;;
72284;SDS011;60220;53.552;10.092;2023-07-20T00:33:57;2.90;;;2.70;;
72284;SDS011;60220;53.552;10.092;2023-07-20T00:36:26;3.50;;;2.20;;
72284;SDS011;60220;53.552;10.092;2023-07-20T00:38:52;2.33;;;2.20;;
72284;SDS011;60220;53.552;10.092;2023-07-20T00:41:18;2.30;;;2.20;;
72284;SDS011;60220;53.552;10.092;2023-07-20T00:43:45;2.50;;;2.30;;
72284;SDS011;60220;53.552;10.092;2023-07-20T00:46:11;2.50;;;2.17;;
72284;SDS011;60220;53.552;10.092;2023-07-20T00:48:37;2.38;;;2.10;;
72284;SDS011;60220;53.552;10.092;2023-07-20T00:51:05;2.50;;;2.30;;
72284;SDS011;60220;53.552;10.092;2023-07-20T00:53:31;1.85;;;1.75;;
72284;SDS011;60220;53.552;10.092;2023-07-20T00:55:58;1.98;;;1.83;;
72284;SDS011;60220;53.552;10.092;2023-07-20T00:58:25;2.53;;;2.33;;
72284;SDS011;60220;53.552;10.092;2023-07-20T01:00:51;2.30;;;2.10;;
72284;SDS011;60220;53.552;10.092;2023-07-20T01:03:17;2.75;;;2.15;;
72284;SDS011;60220;53.552;10.092;2023-07-20T01:05:46;3.15;;;2.33;;
72284;SDS011;60220;53.552;10.092;2023-07-20T01:08:26;2.20;;;2.00;;
72284;SDS011;60220;53.552;10.092;2023-07-20T01:10:54;3.63;;;2.00;;
72284;SDS011;60220;53.552;10.092;2023-07-20T01:13:23;2.53;;;2.00;;
72284;SDS011;60220;53.552;10.092;2023-07-20T01:15:53;2.28;;;2.08;;
72284;SDS011;60220;53.552;10.092;2023-07-20T01:18:20;4.63;;;2.20;;
72284;SDS011;60220;53.552;10.092;2023-07-20T01:20:45;2.33;;;1.95;;
72284;SDS011;60220;53.552;10.092;2023-07-20T01:23:25;1.92;;;1.83;;
72284;SDS011;60220;53.552;10.092;2023-07-20T01:26:18;2.88;;;2.33;;
72284;SDS011;60220;53.552;10.092;2023-07-20T01:28:50;2.33;;;1.90;;
72284;SDS011;60220;53.552;10.092;2023-07-20T01:31:24;2.80;;;1.90;;
72284;SDS011;60220;53.552;10.092;2023-07-20T01:33:54;2.20;;;1.90;;
72284;SDS011;60220;53.552;10.092;2023-07-20T01:36:21;2.85;;;2.00;;
72284;SDS011;60220;53.552;10.092;2023-07-20T01:38:48;3.13;;;1.83;;
72284;SDS011;60220;53.552;10.092;2023-07-20T01:41:15;2.05;;;1.85;;
72284;SDS011;60220;53.552;10.092;2023-07-20T01:43:42;2.10;;;1.80;;
72284;SDS011;60220;53.552;10.092;2023-07-20T01:46:08;2.25;;;2.00;;
72284;SDS011;60220;53.552;10.092;2023-07-20T01:48:36;3.92;;;2.25;;
72284;SDS011;60220;53.552;10.092;2023-07-20T01:51:02;2.45;;;2.25;;
72284;SDS011;60220;53.552;10.092;2023-07-20T01:53:29;2.42;;;2.22;;
72284;SDS011;60220;53.552;10.092;2023-07-20T01:55:58;3.28;;;2.25;;
72284;SDS011;60220;53.552;10.092;2023-07-20T01:58:24;2.42;;;2.17;;
72284;SDS011;60220;53.552;10.092;2023-07-20T02:00:51;6.38;;;2.30;;
72284;SDS011;60220;53.552;10.092;2023-07-20T02:03:17;2.97;;;2.47;;
72284;SDS011;60220;53.552;10.092;2023-07-20T02:05:45;3.05;;;2.10;;
72284;SDS011;60220;53.552;10.092;2023-07-20T02:08:14;2.63;;;2.17;;
72284;SDS011;60220;53.552;10.092;2023-07-20T02:10:41;3.35;;;2.63;;
72284;SDS011;60220;53.552;10.092;2023-07-20T02:13:07;4.53;;;2.75;;
72284;SDS011;60220;53.552;10.092;2023-07-20T02:15:34;2.55;;;2.20;;
72284;SDS011;60220;53.552;10.092;2023-07-20T02:18:00;3.70;;;2.50;;
72284;SDS011;60220;53.552;10.092;2023-07-20T02:20:28;2.58;;;2.38;;
72284;SDS011;60220;53.552;10.092;2023-07-20T02:22:56;2.80;;;2.15;;
72284;SDS011;60220;53.552;10.092;2023-07-20T02:25:22;2.88;;;2.22;;
72284;SDS011;60220;53.552;10.092;2023-07-20T02:27:51;4.25;;;2.47;;
72284;SDS011;60220;53.552;10.092;2023-07-20T02:30:18;2.97;;;2.50;;
72284;SDS011;60220;53.552;10.092;2023-07-20T02:32:44;2.60;;;2.15;;
72284;SDS011;60220;53.552;10.092;2023-07-20T02:35:13;3.95;;;2.58;;
72284;SDS011;60220;53.552;10.092;2023-07-20T02:37:40;3.25;;;2.78;;
72284;SDS011;60220;53.552;10.092;2023-07-20T02:40:08;2.90;;;2.60;;
72284;SDS011;60220;53.552;10.092;2023-07-20T02:42:35;2.80;;;2.50;;
72284;SDS011;60220;53.552;10.092;2023-07-20T02:45:01;3.50;;;2.78;;
72284;SDS011;60220;53.552;10.092;2023-07-20T02:47:28;3.72;;;2.80;;
72284;SDS011;60220;53.552;10.092;2023-07-20T02:49:55;2.47;;;2.20;;
72284;SDS011;60220;53.552;10.092;2023-07-20T02:52:21;3.45;;;2.75;;
72284;SDS011;60220;53.552;10.092;2023-07-20T02:54:48;2.25;;;2.05;;
72284;SDS011;60220;53.552;10.092;2023-07-20T02:57:16;3.20;;;2.38;;
72284;SDS011;60220;53.552;10.092;2023-07-20T02:59:44;3.55;;;3.00;;
72284;SDS011;60220;53.552;10.092;2023-07-20T03:02:11;2.70;;;2.50;;
72284;SDS011;60220;53.552;10.092;2023-07-20T03:04:38;3.05;;;2.42;;
72284;SDS011;60220;53.552;10.092;2023-07-20T03:07:06;3.42;;;2.40;;
72284;SDS011;60220;53.552;10.092;2023-07-20T03:09:33;3.50;;;2.30;;
72284;SDS011;60220;53.552;10.092;2023-07-20T03:11:59;2.42;;;2.22;;
72284;SDS011;60220;53.552;10.092;2023-07-20T03:14:27;2.63;;;2.38;;
72284;SDS011;60220;53.552;10.092;2023-07-20T03:16:54;4.55;;;2.35;;
72284;SDS011;60220;53.552;10.092;2023-07-20T03:19:20;2.75;;;2.50;;
72284;SDS011;60220;53.552;10.092;2023-07-20T03:21:48;2.85;;;2.58;;
72284;SDS011;60220;53.552;10.092;2023-07-20T03:24:16;3.10;;;2.60;;
72284;SDS011;60220;53.552;10.092;2023-07-20T03:26:42;3.08;;;2.45;;
72284;SDS011;60220;53.552;10.092;2023-07-20T03:29:09;2.33;;;1.90;;
72284;SDS011;60220;53.552;10.092;2023-07-20T03:31:37;3.47;;;2.67;;
72284;SDS011;60220;53.552;10.092;2023-07-20T03:34:05;5.95;;;2.88;;
72284;SDS011;60220;53.552;10.092;2023-07-20T03:36:33;2.67;;;2.42;;
72284;SDS011;60220;53.552;10.092;2023-07-20T03:39:00;3.28;;;2.50;;
72284;SDS011;60220;53.552;10.092;2023-07-20T03:41:27;3.55;;;2.58;;
72284;SDS011;60220;53.552;10.092;2023-07-20T03:43:54;2.88;;;2.47;;
72284;SDS011;60220;53.552;10.092;2023-07-20T03:46:20;3.65;;;2.58;;
72284;SDS011;60220;53.552;10.092;2023-07-20T03:48:51;2.92;;;2.42;;
72284;SDS011;60220;53.552;10.092;2023-07-20T03:51:19;4.13;;;2.63;;
72284;SDS011;60220;53.552;10.092;2023-07-20T03:53:46;3.70;;;2.55;;
72284;SDS011;60220;53.552;10.092;2023-07-20T03:56:15;4.10;;;2.38;;
72284;SDS011;60220;53.552;10.092;2023-07-20T03:58:41;3.60;;;2.63;;
72284;SDS011;60220;53.552;10.092;2023-07-20T04:01:08;3.63;;;2.38;;
72284;SDS011;60220;53.552;10.092;2023-07-20T04:03:34;2.60;;;2.38;;
72284;SDS011;60220;53.552;10.092;2023-07-20T04:06:02;2.50;;;2.30;;
72284;SDS011;60220;53.552;10.092;2023-07-20T04:08:29;2.50;;;2.10;;
72284;SDS011;60220;53.552;10.092;2023-07-20T04:10:55;2.65;;;2.28;;
72284;SDS011;60220;53.552;10.092;2023-07-20T04:13:22;4.30;;;2.33;;
72284;SDS011;60220;53.552;10.092;2023-07-20T04:15:48;2.47;;;2.25;;
72284;SDS011;60220;53.552;10.092;2023-07-20T04:18:15;3.17;;;2.45;;
72284;SDS011;60220;53.552;10.092;2023-07-20T04:20:41;2.58;;;2.30;;
72284;SDS011;60220;53.552;10.092;2023-07-20T04:23:09;3.10;;;2.60;;
72284;SDS011;60220;53.552;10.092;2023-07-20T04:25:36;3.70;;;2.88;;
72284;SDS011;60220;53.552;10.092;2023-07-20T04:28:05;5.78;;;4.13;;
72284;SDS011;60220;53.552;10.092;2023-07-20T04:30:34;3.55;;;2.78;;
72284;SDS011;60220;53.552;10.092;2023-07-20T04:33:00;4.03;;;2.50;;
72284;SDS011;60220;53.552;10.092;2023-07-20T04:35:45;3.60;;;2.90;;
72284;SDS011;60220;53.552;10.092;2023-07-20T04:38:13;4.72;;;3.25;;
72284;SDS011;60220;53.552;10.092;2023-07-20T04:40:40;13.48;;;7.28;;
72284;SDS011;60220;53.552;10.092;2023-07-20T04:43:09;4.60;;;3.30;;
72284;SDS011;60220;53.552;10.092;2023-07-20T04:45:35;5.95;;;3.42;;
72284;SDS011;60220;53.552;10.092;2023-07-20T04:48:02;5.03;;;3.85;;
72284;SDS011;60220;53.552;10.092;2023-07-20T04:50:28;8.85;;;5.30;;
72284;SDS011;60220;53.552;10.092;2023-07-20T04:52:55;4.57;;;3.60;;
72284;SDS011;60220;53.552;10.092;2023-07-20T04:55:23;5.35;;;3.22;;
72284;SDS011;60220;53.552;10.092;2023-07-20T04:57:49;3.72;;;3.42;;
72284;SDS011;60220;53.552;10.092;2023-07-20T05:00:16;4.57;;;3.58;;
72284;SDS011;60220;53.552;10.092;2023-07-20T05:02:42;5.20;;;4.15;;
72284;SDS011;60220;53.552;10.092;2023-07-20T05:05:11;5.38;;;3.42;;
72284;SDS011;60220;53.552;10.092;2023-07-20T05:07:38;3.95;;;3.38;;
72284;SDS011;60220;53.552;10.092;2023-07-20T05:10:04;3.70;;;3.10;;
72284;SDS011;60220;53.552;10.092;2023-07-20T05:12:32;4.18;;;3.35;;
72284;SDS011;60220;53.552;10.092;2023-07-20T05:14:59;3.65;;;3.33;;
72284;SDS011;60220;53.552;10.092;2023-07-20T05:17:25;4.43;;;3.80;;
72284;SDS011;60220;53.552;10.092;2023-07-20T05:19:52;5.68;;;4.78;;
72284;SDS011;60220;53.552;10.092;2023-07-20T05:22:18;3.55;;;3.25;;
72284;SDS011;60220;53.552;10.092;2023-07-20T05:24:45;3.65;;;3.35;;
72284;SDS011;60220;53.552;10.092;2023-07-20T05:27:11;4.72;;;3.30;;
72284;SDS011;60220;53.552;10.092;2023-07-20T05:29:44;3.33;;;3.03;;
72284;SDS011;60220;53.552;10.092;2023-07-20T05:32:10;3.58;;;3.05;;
72284;SDS011;60220;53.552;10.092;2023-07-20T05:34:37;4.35;;;3.20;;
72284;SDS011;60220;53.552;10.092;2023-07-20T05:37:03;4.28;;;2.90;;
72284;SDS011;60220;53.552;10.092;2023-07-20T05:39:32;6.57;;;2.90;;
72284;SDS011;60220;53.552;10.092;2023-07-20T05:41:59;2.53;;;2.33;;
72284;SDS011;60220;53.552;10.092;2023-07-20T05:44:25;4.03;;;2.70;;
72284;SDS011;60220;53.552;10.092;2023-07-20T05:46:53;5.57;;;2.95;;
72284;SDS011;60220;53.552;10.092;2023-07-20T05:49:22;2.67;;;2.47;;
72284;SDS011;60220;53.552;10.092;2023-07-20T05:51:49;3.95;;;3.17;;
72284;SDS011;60220;53.552;10.092;2023-07-20T05:54:15;4.15;;;2.67;;
72284;SDS011;60220;53.552;10.092;2023-07-20T05:56:42;3.60;;;2.78;;
72284;SDS011;60220;53.552;10.092;2023-07-20T05:59:08;6.70;;;4.53;;
72284;SDS011;60220;53.552;10.092;2023-07-20T06:01:34;3.35;;;2.90;;
72284;SDS011;60220;53.552;10.092;2023-07-20T06:04:03;5.82;;;3.53;;
72284;SDS011;60220;53.552;10.092;2023-07-20T06:06:29;2.90;;;2.47;;
72284;SDS011;60220;53.552;10.092;2023-07-20T06:08:56;3.28;;;3.08;;
72284;SDS011;60220;53.552;10.092;2023-07-20T06:11:22;3.17;;;2.92;;
72284;SDS011;60220;53.552;10.092;2023-07-20T06:13:49;6.20;;;3.50;;
72284;SDS011;60220;53.552;10.092;2023-07-20T06:16:17;4.65;;;4.18;;
72284;SDS011;60220;53.552;10.092;2023-07-20T06:18:44;6.22;;;3.17;;
72284;SDS011;60220;53.552;10.092;2023-07-20T06:21:12;3.97;;;2.95;;
72284;SDS011;60220;53.552;10.092;2023-07-20T06:23:38;3.67;;;3.30;;
72284;SDS011;60220;53.552;10.092;2023-07-20T06:26:05;2.65;;;2.45;;
72284;SDS011;60220;53.552;10.092;2023-07-20T06:28:31;2.58;;;2.38;;
72284;SDS011;60220;53.552;10.092;2023-07-20T06:31:01;6.03;;;4.55;;
72284;SDS011;60220;53.552;10.092;2023-07-20T06:33:27;7.40;;;5.45;;
72284;SDS011;60220;53.552;10.092;2023-07-20T06:35:56;4.82;;;3.35;;
72284;SDS011;60220;53.552;10.092;2023-07-20T06:38:24;3.83;;;2.90;;
72284;SDS011;60220;53.552;10.092;2023-07-20T06:40:51;2.65;;;2.45;;
72284;SDS011;60220;53.552;10.092;2023-07-20T06:43:19;3.47;;;2.75;;
72284;SDS011;60220;53.552;10.092;2023-07-20T06:45:50;2.70;;;2.50;;
72284;SDS011;60220;53.552;10.092;2023-07-20T06:48:19;2.60;;;2.40;;
72284;SDS011;60220;53.552;10.092;2023-07-20T06:50:45;3.95;;;3.35;;
72284;SDS011;60220;53.552;10.092;2023-07-20T06:53:12;5.15;;;3.30;;
72284;SDS011;60220;53.552;10.092;2023-07-20T06:55:41;5.05;;;2.50;;
72284;SDS011;60220;53.552;10.092;2023-07-20T06:58:10;4.80;;;2.50;;
72284;SDS011;60220;53.552;10.092;2023-07-20T07:00:37;2.17;;;2.00;;
72284;SDS011;60220;53.552;10.092;2023-07-20T07:03:03;2.42;;;2.20;;
72284;SDS011;60220;53.552;10.092;2023-07-20T07:05:30;2.53;;;1.90;;
72284;SDS011;60220;53.552;10.092;2023-07-20T07:07:58;1.90;;;1.80;;
72284;SDS011;60220;53.552;10.092;2023-07-20T07:10:25;4.32;;;1.98;;
72284;SDS011;60220;53.552;10.092;2023-07-20T07:12:55;2.20;;;2.10;;
72284;SDS011;60220;53.552;10.092;2023-07-20T07:15:21;3.35;;;2.00;;
72284;SDS011;60220;53.552;10.092;2023-07-20T07:17:48;2.55;;;2.30;;
72284;SDS011;60220;53.552;10.092;2023-07-20T07:20:17;2.45;;;2.10;;
72284;SDS011;60220;53.552;10.092;2023-07-20T07:22:43;3.25;;;2.47;;
72284;SDS011;60220;53.552;10.092;2023-07-20T07:25:10;2.40;;;2.20;;
72284;SDS011;60220;53.552;10.092;2023-07-20T07:27:37;2.28;;;2.08;;
72284;SDS011;60220;53.552;10.092;2023-07-20T07:30:06;2.70;;;2.00;;
72284;SDS011;60220;53.552;10.092;2023-07-20T07:32:32;6.88;;;3.35;;
72284;SDS011;60220;53.552;10.092;2023-07-20T07:34:59;2.05;;;1.90;;
72284;SDS011;60220;53.552;10.092;2023-07-20T07:37:28;5.43;;;1.85;;
72284;SDS011;60220;53.552;10.092;2023-07-20T07:39:54;2.25;;;2.03;;
72284;SDS011;60220;53.552;10.092;2023-07-20T07:42:20;3.35;;;2.35;;
72284;SDS011;60220;53.552;10.092;2023-07-20T07:44:47;2.30;;;2.10;;
72284;SDS011;60220;53.552;10.092;2023-07-20T07:47:15;3.92;;;1.80;;
72284;SDS011;60220;53.552;10.092;2023-07-20T07:49:43;6.43;;;2.10;;
72284;SDS011;60220;53.552;10.092;2023-07-20T07:52:10;6.97;;;2.22;;
72284;SDS011;60220;53.552;10.092;2023-07-20T07:54:36;2.35;;;2.15;;
72284;SDS011;60220;53.552;10.092;2023-07-20T07:57:03;2.65;;;2.20;;
72284;SDS011;60220;53.552;10.092;2023-07-20T07:59:29;3.10;;;2.80;;
72284;SDS011;60220;53.552;10.092;2023-07-20T08:02:01;2.13;;;2.00;;
72284;SDS011;60220;53.552;10.092;2023-07-20T08:04:29;8.82;;;2.83;;
72284;SDS011;60220;53.552;10.092;2023-07-20T08:06:55;7.43;;;2.40;;
72284;SDS011;60220;53.552;10.092;2023-07-20T08:09:22;3.58;;;2.30;;
72284;SDS011;60220;53.552;10.092;2023-07-20T08:11:48;3.08;;;1.35;;
72284;SDS011;60220;53.552;10.092;2023-07-20T08:14:17;4.10;;;1.73;;
72284;SDS011;60220;53.552;10.092;2023-07-20T08:16:44;1.60;;;1.50;;
72284;SDS011;60220;53.552;10.092;2023-07-20T08:19:11;2.72;;;2.17;;
72284;SDS011;60220;53.552;10.092;2023-07-20T08:21:38;2.63;;;1.98;;
72284;SDS011;60220;53.552;10.092;2023-07-20T08:24:05;2.92;;;1.52;;
72284;SDS011;60220;53.552;10.092;2023-07-20T08:26:32;3.03;;;1.30;;
72284;SDS011;60220;53.552;10.092;2023-07-20T08:28:58;5.45;;;1.60;;
72284;SDS011;60220;53.552;10.092;2023-07-20T08:31:25;2.63;;;1.40;;
72284;SDS011;60220;53.552;10.092;2023-07-20T08:33:53;4.68;;;1.85;;
72284;SDS011;60220;53.552;10.092;2023-07-20T08:36:22;8.52;;;2.88;;
72284;SDS011;60220;53.552;10.092;2023-07-20T08:38:52;9.20;;;2.00;;
72284;SDS011;60220;53.552;10.092;2023-07-20T08:41:20;6.30;;;1.55;;
72284;SDS011;60220;53.552;10.092;2023-07-20T08:43:47;2.35;;;1.00;;
72284;SDS011;60220;53.552;10.092;2023-07-20T08:46:13;3.92;;;1.63;;
72284;SDS011;60220;53.552;10.092;2023-07-20T08:48:40;6.78;;;1.63;;
72284;SDS011;60220;53.552;10.092;2023-07-20T08:51:10;18.15;;;2.70;;
72284;SDS011;60220;53.552;10.092;2023-07-20T08:53:38;3.00;;;0.98;;
72284;SDS011;60220;53.552;10.092;2023-07-20T08:56:06;4.68;;;1.25;;
72284;SDS011;60220;53.552;10.092;2023-07-20T08:58:35;2.45;;;1.27;;
72284;SDS011;60220;53.552;10.092;2023-07-20T09:01:02;5.55;;;3.08;;
72284;SDS011;60220;53.552;10.092;2023-07-20T09:03:29;5.32;;;2.85;;
72284;SDS011;60220;53.552;10.092;2023-07-20T09:05:55;3.13;;;2.72;;
72284;SDS011;60220;53.552;10.092;2023-07-20T09:08:22;11.55;;;3.20;;
72284;SDS011;60220;53.552;10.092;2023-07-20T09:10:48;11.02;;;3.95;;
72284;SDS011;60220;53.552;10.092;2023-07-20T09:13:16;8.68;;;3.15;;
72284;SDS011;60220;53.552;10.092;2023-07-20T09:15:45;3.90;;;3.50;;
72284;SDS011;60220;53.552;10.092;2023-07-20T09:18:12;9.13;;;4.55;;
72284;SDS011;60220;53.552;10.092;2023-07-20T09:20:49;12.38;;;4.00;;
72284;SDS011;60220;53.552;10.092;2023-07-20T09:23:15;7.95;;;3.45;;
72284;SDS011;60220;53.552;10.092;2023-07-20T09:25:42;5.93;;;2.70;;
72284;SDS011;60220;53.552;10.092;2023-07-20T09:28:08;8.18;;;4.90;;
72284;SDS011;60220;53.552;10.092;2023-07-20T09:30:36;9.93;;;3.72;;
72284;SDS011;60220;53.552;10.092;2023-07-20T09:33:02;4.97;;;2.55;;
72284;SDS011;60220;53.552;10.092;2023-07-20T09:35:29;8.55;;;3.08;;
72284;SDS011;60220;53.552;10.092;2023-07-20T09:37:57;4.72;;;2.33;;
72284;SDS011;60220;53.552;10.092;2023-07-20T09:40:24;12.27;;;4.95;;
72284;SDS011;60220;53.552;10.092;2023-07-20T09:42:51;6.18;;;3.38;;
72284;SDS011;60220;53.552;10.092;2023-07-20T09:45:18;6.10;;;3.67;;
72284;SDS011;60220;53.552;10.092;2023-07-20T09:47:47;4.13;;;2.40;;
72284;SDS011;60220;53.552;10.092;2023-07-20T09:50:16;9.93;;;2.88;;
72284;SDS011;60220;53.552;10.092;2023-07-20T09:52:42;3.97;;;2.40;;
72284;SDS011;60220;53.552;10.092;2023-07-20T09:55:10;4.20;;;2.15;;
72284;SDS011;60220;53.552;10.092;2023-07-20T09:57:37;5.55;;;2.15;;
72284;SDS011;60220;53.552;10.092;2023-07-20T10:00:05;2.95;;;1.90;;
72284;SDS011;60220;53.552;10.092;2023-07-20T10:02:40;2.50;;;1.80;;
72284;SDS011;60220;53.552;10.092;2023-07-20T10:05:09;6.97;;;1.92;;
72284;SDS011;60220;53.552;10.092;2023-07-20T10:07:38;3.28;;;1.40;;
72284;SDS011;60220;53.552;10.092;2023-07-20T10:10:07;2.05;;;1.60;;
72284;SDS011;60220;53.552;10.092;2023-07-20T10:12:36;3.05;;;1.60;;
72284;SDS011;60220;53.552;10.092;2023-07-20T10:15:06;2.15;;;1.63;;
72284;SDS011;60220;53.552;10.092;2023-07-20T10:17:35;3.90;;;1.50;;
72284;SDS011;60220;53.552;10.092;2023-07-20T10:20:03;3.00;;;1.70;;
72284;SDS011;60220;53.552;10.092;2023-07-20T10:22:34;1.42;;;1.30;;
72284;SDS011;60220;53.552;10.092;2023-07-20T10:25:01;2.53;;;1.63;;
72284;SDS011;60220;53.552;10.092;2023-07-20T10:27:30;2.30;;;1.40;;
72284;SDS011;60220;53.552;10.092;2023-07-20T10:29:56;6.75;;;1.75;;
72284;SDS011;60220;53.552;10.092;2023-07-20T10:32:24;2.38;;;1.52;;
72284;SDS011;60220;53.552;10.092;2023-07-20T10:34:53;1.50;;;1.40;;
72284;SDS011;60220;53.552;10.092;2023-07-20T10:42:57;2.00;;;1.70;;
72284;SDS011;60220;53.552;10.092;2023-07-20T10:45:32;1.33;;;1.23;;
72284;SDS011;60220;53.552;10.092;2023-07-20T10:47:59;5.03;;;2.25;;
72284;SDS011;60220;53.552;10.092;2023-07-20T10:50:28;3.75;;;1.48;;
72284;SDS011;60220;53.552;10.092;2023-07-20T10:53:03;8.98;;;3.08;;
72284;SDS011;60220;53.552;10.092;2023-07-20T10:55:30;4.47;;;1.23;;
72284;SDS011;60220;53.552;10.092;2023-07-20T10:58:07;3.53;;;1.35;;
72284;SDS011;60220;53.552;10.092;2023-07-20T11:00:34;1.83;;;1.40;;
72284;SDS011;60220;53.552;10.092;2023-07-20T11:03:01;1.70;;;1.20;;
72284;SDS011;60220;53.552;10.092;2023-07-20T11:05:35;3.70;;;1.50;;
72284;SDS011;60220;53.552;10.092;2023-07-20T11:08:05;4.43;;;2.35;;
72284;SDS011;60220;53.552;10.092;2023-07-20T11:10:32;2.35;;;1.17;;
72284;SDS011;60220;53.552;10.092;2023-07-20T11:15:53;2.95;;;2.08;;
72284;SDS011;60220;53.552;10.092;2023-07-20T11:18:27;2.85;;;1.52;;
72284;SDS011;60220;53.552;10.092;2023-07-20T11:20:53;2.78;;;1.60;;
72284;SDS011;60220;53.552;10.092;2023-07-20T11:23:20;3.88;;;1.30;;
72284;SDS011;60220;53.552;10.092;2023-07-20T11:25:47;4.07;;;1.42;;
72284;SDS011;60220;53.552;10.092;2023-07-20T11:28:13;3.55;;;0.98;;
72284;SDS011;60220;53.552;10.092;2023-07-20T11:30:40;2.55;;;1.50;;
72284;SDS011;60220;53.552;10.092;2023-07-20T11:33:09;1.70;;;0.95;;
72284;SDS011;60220;53.552;10.092;2023-07-20T11:35:36;0.80;;;0.75;;
72284;SDS011;60220;53.552;10.092;2023-07-20T11:38:08;4.00;;;1.17;;
72284;SDS011;60220;53.552;10.092;2023-07-20T11:40:36;0.80;;;0.70;;
72284;SDS011;60220;53.552;10.092;2023-07-20T11:43:03;5.05;;;1.42;;
72284;SDS011;60220;53.552;10.092;2023-07-20T11:45:29;1.27;;;0.70;;
72284;SDS011;60220;53.552;10.092;2023-07-20T11:48:00;1.35;;;0.77;;
72284;SDS011;60220;53.552;10.092;2023-07-20T11:50:27;0.82;;;0.63;;
72284;SDS011;60220;53.552;10.092;2023-07-20T11:52:54;1.98;;;0.73;;
72284;SDS011;60220;53.552;10.092;2023-07-20T11:55:21;2.70;;;1.65;;
72284;SDS011;60220;53.552;10.092;2023-07-20T11:58:02;3.55;;;1.15;;
72284;SDS011;60220;53.552;10.092;2023-07-20T12:00:28;0.52;;;0.45;;
72284;SDS011;60220;53.552;10.092;2023-07-20T12:02:55;1.75;;;0.90;;
72284;SDS011;60220;53.552;10.092;2023-07-20T12:05:22;4.57;;;1.58;;
72284;SDS011;60220;53.552;10.092;2023-07-20T12:07:50;1.15;;;0.60;;
72284;SDS011;60220;53.552;10.092;2023-07-20T12:10:23;2.85;;;0.73;;
72284;SDS011;60220;53.552;10.092;2023-07-20T12:12:50;5.40;;;0.98;;
72284;SDS011;60220;53.552;10.092;2023-07-20T12:15:16;11.32;;;2.08;;
72284;SDS011;60220;53.552;10.092;2023-07-20T12:17:43;4.18;;;1.38;;
72284;SDS011;60220;53.552;10.092;2023-07-20T12:20:10;6.07;;;3.70;;
72284;SDS011;60220;53.552;10.092;2023-07-20T12:22:38;2.10;;;0.63;;
72284;SDS011;60220;53.552;10.092;2023-07-20T12:25:06;1.55;;;0.82;;
72284;SDS011;60220;53.552;10.092;2023-07-20T12:27:33;2.03;;;0.60;;
72284;SDS011;60220;53.552;10.092;2023-07-20T12:30:01;4.10;;;0.77;;
72284;SDS011;60220;53.552;10.092;2023-07-20T12:32:28;1.25;;;0.60;;
72284;SDS011;60220;53.552;10.092;2023-07-20T12:34:54;4.18;;;1.08;;
72284;SDS011;60220;53.552;10.092;2023-07-20T12:37:21;5.72;;;1.50;;
72284;SDS011;60220;53.552;10.092;2023-07-20T12:39:47;3.95;;;1.50;;
72284;SDS011;60220;53.552;10.092;2023-07-20T12:42:15;3.70;;;0.90;;
72284;SDS011;60220;53.552;10.092;2023-07-20T12:44:42;3.53;;;1.20;;
72284;SDS011;60220;53.552;10.092;2023-07-20T12:47:08;3.60;;;1.80;;
72284;SDS011;60220;53.552;10.092;2023-07-20T12:49:35;2.10;;;0.90;;
72284;SDS011;60220;53.552;10.092;2023-07-20T12:52:01;2.63;;;0.93;;
72284;SDS011;60220;53.552;10.092;2023-07-20T12:54:30;1.63;;;0.75;;
72284;SDS011;60220;53.552;10.092;2023-07-20T12:56:56;1.73;;;0.52;;
72284;SDS011;60220;53.552;10.092;2023-07-20T12:59:24;1.65;;;0.70;;
72284;SDS011;60220;53.552;10.092;2023-07-20T13:01:53;3.78;;;1.13;;
72284;SDS011;60220;53.552;10.092;2023-07-20T13:04:20;2.10;;;0.70;;
72284;SDS011;60220;53.552;10.092;2023-07-20T13:06:46;3.05;;;0.90;;
72284;SDS011;60220;53.552;10.092;2023-07-20T13:09:13;5.97;;;0.90;;
72284;SDS011;60220;53.552;10.092;2023-07-20T13:11:39;1.80;;;0.82;;
72284;SDS011;60220;53.552;10.092;2023-07-20T13:14:06;0.88;;;0.65;;
72284;SDS011;60220;53.552;10.092;2023-07-20T13:16:33;4.70;;;0.82;;
72284;SDS011;60220;53.552;10.092;2023-07-20T13:19:00;3.08;;;0.70;;
72284;SDS011;60220;53.552;10.092;2023-07-20T13:21:27;2.15;;;0.60;;
72284;SDS011;60220;53.552;10.092;2023-07-20T13:23:54;2.53;;;0.60;;
72284;SDS011;60220;53.552;10.092;2023-07-20T13:26:20;1.38;;;0.50;;
72284;SDS011;60220;53.552;10.092;2023-07-20T13:28:49;4.22;;;0.60;;
72284;SDS011;60220;53.552;10.092;2023-07-20T13:31:16;1.75;;;0.50;;
72284;SDS011;60220;53.552;10.092;2023-07-20T13:33:44;3.65;;;0.52;;
72284;SDS011;60220;53.552;10.092;2023-07-20T13:36:10;2.30;;;0.30;;
72284;SDS011;60220;53.552;10.092;2023-07-20T13:38:36;1.83;;;0.95;;
72284;SDS011;60220;53.552;10.092;2023-07-20T13:41:05;2.00;;;0.68;;
72284;SDS011;60220;53.552;10.092;2023-07-20T13:43:31;2.25;;;0.50;;
72284;SDS011;60220;53.552;10.092;2023-07-20T13:45:58;1.65;;;0.40;;
72284;SDS011;60220;53.552;10.092;2023-07-20T13:48:29;2.70;;;0.68;;
72284;SDS011;60220;53.552;10.092;2023-07-20T13:50:57;2.60;;;0.40;;
72284;SDS011;60220;53.552;10.092;2023-07-20T13:53:31;1.55;;;0.47;;
72284;SDS011;60220;53.552;10.092;2023-07-20T13:55:57;0.60;;;0.30;;
72284;SDS011;60220;53.552;10.092;2023-07-20T13:58:24;0.40;;;0.25;;
72284;SDS011;60220;53.552;10.092;2023-07-20T14:00:51;7.03;;;0.80;;
72284;SDS011;60220;53.552;10.092;2023-07-20T14:03:19;6.55;;;1.10;;
72284;SDS011;60220;53.552;10.092;2023-07-20T14:05:45;3.97;;;0.70;;
72284;SDS011;60220;53.552;10.092;2023-07-20T14:08:15;1.65;;;0.80;;
72284;SDS011;60220;53.552;10.092;2023-07-20T14:10:43;1.25;;;0.20;;
72284;SDS011;60220;53.552;10.092;2023-07-20T14:13:10;2.25;;;0.82;;
72284;SDS011;60220;53.552;10.092;2023-07-20T14:15:37;3.00;;;0.60;;
72284;SDS011;60220;53.552;10.092;2023-07-20T14:18:05;1.45;;;0.30;;
72284;SDS011;60220;53.552;10.092;2023-07-20T14:20:34;0.20;;;0.20;;
72284;SDS011;60220;53.552;10.092;2023-07-20T14:23:01;2.25;;;0.77;;
72284;SDS011;60220;53.552;10.092;2023-07-20T14:25:29;0.68;;;0.38;;
72284;SDS011;60220;53.552;10.092;2023-07-20T14:27:55;0.90;;;0.47;;
72284;SDS011;60220;53.552;10.092;2023-07-20T14:30:22;0.98;;;0.30;;
72284;SDS011;60220;53.552;10.092;2023-07-20T14:32:48;1.83;;;0.80;;
72284;SDS011;60220;53.552;10.092;2023-07-20T14:35:14;1.30;;;0.40;;
72284;SDS011;60220;53.552;10.092;2023-07-20T14:37:41;1.33;;;0.50;;
72284;SDS011;60220;53.552;10.092;2023-07-20T14:40:08;2.00;;;0.80;;
72284;SDS011;60220;53.552;10.092;2023-07-20T14:42:36;0.88;;;0.40;;
72284;SDS011;60220;53.552;10.092;2023-07-20T14:45:06;1.00;;;0.38;;